sensor_id;sensor_type;location;lat;lon;timestamp;P1;durP1;ratioP1;P2;durP2;ratioP2
8247;SDS011;4164;49.844;8.830;2022-10-16T00:01:38;1.50;;;1.40;;
8247;SDS011;4164;49.844;8.830;2022-10-16T00:04:04;2.77;;;1.50;;
8247;SDS011;4164;49.844;8.830;2022-10-16T00:06:30;5.00;;;1.47;;
8247;SDS011;4164;49.844;8.830;2022-10-16T00:08:56;2.47;;;1.43;;
8247;SDS011;4164;49.844;8.830;2022-10-16T00:13:55;4.90;;;1.60;;
8247;SDS011;4164;49.844;8.830;2022-10-16T00:16:22;1.50;;;1.40;;
8247;SDS011;4164;49.844;8.830;2022-10-16T00:18:48;1.43;;;1.33;;
8247;SDS011;4164;49.844;8.830;2022-10-16T00:21:24;2.80;;;1.40;;
8247;SDS011;4164;49.844;8.830;2022-10-16T00:23:52;1.37;;;1.27;;
8247;SDS011;4164;49.844;8.830;2022-10-16T00:26:19;3.77;;;1.30;;
8247;SDS011;4164;49.844;8.830;2022-10-16T00:28:46;2.43;;;1.23;;
8247;SDS011;4164;49.844;8.830;2022-10-16T00:31:13;3.77;;;1.10;;
8247;SDS011;4164;49.844;8.830;2022-10-16T00:33:39;1.57;;;1.47;;
8247;SDS011;4164;49.844;8.830;2022-10-16T00:36:06;1.43;;;1.17;;
8247;SDS011;4164;49.844;8.830;2022-10-16T00:38:35;2.43;;;1.50;;
8247;SDS011;4164;49.844;8.830;2022-10-16T00:41:02;1.80;;;1.20;;
8247;SDS011;4164;49.844;8.830;2022-10-16T00:48:39;2.67;;;1.00;;
8247;SDS011;4164;49.844;8.830;2022-10-16T00:51:06;1.50;;;1.40;;
8247;SDS011;4164;49.844;8.830;2022-10-16T00:53:33;1.40;;;1.30;;
8247;SDS011;4164;49.844;8.830;2022-10-16T00:55:59;1.50;;;1.30;;
8247;SDS011;4164;49.844;8.830;2022-10-16T00:58:25;1.40;;;1.27;;
8247;SDS011;4164;49.844;8.830;2022-10-16T01:00:51;1.37;;;1.20;;
8247;SDS011;4164;49.844;8.830;2022-10-16T01:03:24;1.43;;;1.30;;
8247;SDS011;4164;49.844;8.830;2022-10-16T01:06:36;1.20;;;1.10;;
8247;SDS011;4164;49.844;8.830;2022-10-16T01:11:33;1.60;;;1.20;;
8247;SDS011;4164;49.844;8.830;2022-10-16T01:14:18;2.50;;;1.07;;
8247;SDS011;4164;49.844;8.830;2022-10-16T01:17:05;1.40;;;1.07;;
8247;SDS011;4164;49.844;8.830;2022-10-16T01:22:10;1.87;;;1.30;;
8247;SDS011;4164;49.844;8.830;2022-10-16T01:24:40;1.10;;;1.00;;
8247;SDS011;4164;49.844;8.830;2022-10-16T01:38:01;1.03;;;1.03;;
8247;SDS011;4164;49.844;8.830;2022-10-16T01:40:32;1.77;;;1.10;;
8247;SDS011;4164;49.844;8.830;2022-10-16T01:46:02;1.53;;;1.20;;
8247;SDS011;4164;49.844;8.830;2022-10-16T01:48:28;1.30;;;1.20;;
8247;SDS011;4164;49.844;8.830;2022-10-16T01:50:56;2.40;;;1.13;;
8247;SDS011;4164;49.844;8.830;2022-10-16T01:53:25;1.30;;;1.20;;
8247;SDS011;4164;49.844;8.830;2022-10-16T01:55:52;2.40;;;1.30;;
8247;SDS011;4164;49.844;8.830;2022-10-16T01:58:20;4.73;;;1.33;;
8247;SDS011;4164;49.844;8.830;2022-10-16T02:00:48;1.80;;;1.40;;
8247;SDS011;4164;49.844;8.830;2022-10-16T02:03:15;1.63;;;1.40;;
8247;SDS011;4164;49.844;8.830;2022-10-16T02:05:47;1.83;;;1.33;;
8247;SDS011;4164;49.844;8.830;2022-10-16T02:08:14;1.90;;;1.63;;
8247;SDS011;4164;49.844;8.830;2022-10-16T02:10:39;2.77;;;1.57;;
8247;SDS011;4164;49.844;8.830;2022-10-16T02:15:36;2.33;;;1.63;;
8247;SDS011;4164;49.844;8.830;2022-10-16T02:18:02;2.60;;;2.00;;
8247;SDS011;4164;49.844;8.830;2022-10-16T02:20:31;4.20;;;2.17;;
8247;SDS011;4164;49.844;8.830;2022-10-16T02:23:01;2.80;;;2.50;;
8247;SDS011;4164;49.844;8.830;2022-10-16T02:25:32;3.97;;;2.83;;
8247;SDS011;4164;49.844;8.830;2022-10-16T02:28:08;3.63;;;2.63;;
8247;SDS011;4164;49.844;8.830;2022-10-16T02:33:13;3.00;;;2.80;;
8247;SDS011;4164;49.844;8.830;2022-10-16T02:35:41;5.23;;;3.33;;
8247;SDS011;4164;49.844;8.830;2022-10-16T02:38:08;4.30;;;3.07;;
8247;SDS011;4164;49.844;8.830;2022-10-16T02:40:35;3.77;;;3.43;;
8247;SDS011;4164;49.844;8.830;2022-10-16T02:43:03;8.13;;;4.23;;
8247;SDS011;4164;49.844;8.830;2022-10-16T02:45:30;18.17;;;3.93;;
8247;SDS011;4164;49.844;8.830;2022-10-16T02:47:55;4.23;;;3.83;;
8247;SDS011;4164;49.844;8.830;2022-10-16T02:50:21;7.03;;;5.00;;
8247;SDS011;4164;49.844;8.830;2022-10-16T02:52:47;9.60;;;5.60;;
8247;SDS011;4164;49.844;8.830;2022-10-16T02:55:13;6.53;;;5.60;;
8247;SDS011;4164;49.844;8.830;2022-10-16T02:57:39;9.40;;;5.50;;
8247;SDS011;4164;49.844;8.830;2022-10-16T03:00:05;5.60;;;5.07;;
8247;SDS011;4164;49.844;8.830;2022-10-16T03:02:35;6.10;;;5.23;;
8247;SDS011;4164;49.844;8.830;2022-10-16T03:05:01;5.90;;;5.17;;
8247;SDS011;4164;49.844;8.830;2022-10-16T03:07:26;5.90;;;5.30;;
8247;SDS011;4164;49.844;8.830;2022-10-16T03:09:52;5.53;;;5.03;;
8247;SDS011;4164;49.844;8.830;2022-10-16T03:12:17;5.00;;;4.60;;
8247;SDS011;4164;49.844;8.830;2022-10-16T03:14:43;5.63;;;5.07;;
8247;SDS011;4164;49.844;8.830;2022-10-16T03:17:08;5.30;;;4.60;;
8247;SDS011;4164;49.844;8.830;2022-10-16T03:19:34;6.10;;;4.80;;
8247;SDS011;4164;49.844;8.830;2022-10-16T03:22:00;5.60;;;5.10;;
8247;SDS011;4164;49.844;8.830;2022-10-16T03:24:26;5.17;;;4.77;;
8247;SDS011;4164;49.844;8.830;2022-10-16T03:26:52;8.60;;;5.50;;
8247;SDS011;4164;49.844;8.830;2022-10-16T03:29:17;6.30;;;5.07;;
8247;SDS011;4164;49.844;8.830;2022-10-16T03:31:43;8.43;;;4.90;;
8247;SDS011;4164;49.844;8.830;2022-10-16T03:34:08;4.97;;;4.57;;
8247;SDS011;4164;49.844;8.830;2022-10-16T03:36:34;6.73;;;4.63;;
8247;SDS011;4164;49.844;8.830;2022-10-16T03:39:00;9.00;;;5.40;;
8247;SDS011;4164;49.844;8.830;2022-10-16T03:41:25;5.50;;;4.80;;
8247;SDS011;4164;49.844;8.830;2022-10-16T03:43:51;5.37;;;4.97;;
8247;SDS011;4164;49.844;8.830;2022-10-16T03:46:16;5.97;;;5.17;;
8247;SDS011;4164;49.844;8.830;2022-10-16T03:48:42;5.77;;;5.27;;
8247;SDS011;4164;49.844;8.830;2022-10-16T03:51:07;6.00;;;5.50;;
8247;SDS011;4164;49.844;8.830;2022-10-16T03:53:33;5.47;;;4.97;;
8247;SDS011;4164;49.844;8.830;2022-10-16T03:55:58;6.53;;;5.27;;
8247;SDS011;4164;49.844;8.830;2022-10-16T03:58:25;8.33;;;5.53;;
8247;SDS011;4164;49.844;8.830;2022-10-16T04:00:50;5.50;;;5.00;;
8247;SDS011;4164;49.844;8.830;2022-10-16T04:03:16;6.37;;;5.10;;
8247;SDS011;4164;49.844;8.830;2022-10-16T04:05:42;6.87;;;5.67;;
8247;SDS011;4164;49.844;8.830;2022-10-16T04:08:07;13.10;;;6.07;;
8247;SDS011;4164;49.844;8.830;2022-10-16T04:10:33;5.67;;;5.17;;
8247;SDS011;4164;49.844;8.830;2022-10-16T04:12:59;7.10;;;5.60;;
8247;SDS011;4164;49.844;8.830;2022-10-16T04:15:24;6.83;;;5.40;;
8247;SDS011;4164;49.844;8.830;2022-10-16T04:17:50;9.10;;;6.17;;
8247;SDS011;4164;49.844;8.830;2022-10-16T04:20:16;7.03;;;5.53;;
8247;SDS011;4164;49.844;8.830;2022-10-16T04:22:42;8.93;;;5.80;;
8247;SDS011;4164;49.844;8.830;2022-10-16T04:25:08;7.97;;;5.87;;
8247;SDS011;4164;49.844;8.830;2022-10-16T04:27:34;6.43;;;5.77;;
8247;SDS011;4164;49.844;8.830;2022-10-16T04:30:00;7.47;;;5.50;;
8247;SDS011;4164;49.844;8.830;2022-10-16T04:32:25;9.90;;;7.03;;
8247;SDS011;4164;49.844;8.830;2022-10-16T04:34:51;8.13;;;5.60;;
8247;SDS011;4164;49.844;8.830;2022-10-16T04:37:17;6.60;;;5.67;;
8247;SDS011;4164;49.844;8.830;2022-10-16T04:39:43;6.23;;;5.33;;
8247;SDS011;4164;49.844;8.830;2022-10-16T04:42:09;5.47;;;4.73;;
8247;SDS011;4164;49.844;8.830;2022-10-16T04:44:35;6.83;;;3.63;;
8247;SDS011;4164;49.844;8.830;2022-10-16T04:47:01;4.03;;;3.37;;
8247;SDS011;4164;49.844;8.830;2022-10-16T04:49:26;2.73;;;2.50;;
8247;SDS011;4164;49.844;8.830;2022-10-16T04:51:52;3.87;;;3.07;;
8247;SDS011;4164;49.844;8.830;2022-10-16T04:54:17;2.60;;;2.40;;
8247;SDS011;4164;49.844;8.830;2022-10-16T04:56:43;3.73;;;2.57;;
8247;SDS011;4164;49.844;8.830;2022-10-16T04:59:12;3.50;;;2.90;;
8247;SDS011;4164;49.844;8.830;2022-10-16T05:01:39;3.23;;;2.93;;
8247;SDS011;4164;49.844;8.830;2022-10-16T05:04:04;5.03;;;3.60;;
8247;SDS011;4164;49.844;8.830;2022-10-16T05:06:30;4.63;;;3.73;;
8247;SDS011;4164;49.844;8.830;2022-10-16T05:08:55;4.63;;;4.13;;
8247;SDS011;4164;49.844;8.830;2022-10-16T05:11:21;4.90;;;3.73;;
8247;SDS011;4164;49.844;8.830;2022-10-16T05:13:46;10.07;;;4.33;;
8247;SDS011;4164;49.844;8.830;2022-10-16T05:16:12;4.00;;;3.70;;
8247;SDS011;4164;49.844;8.830;2022-10-16T05:18:37;4.20;;;3.80;;
8247;SDS011;4164;49.844;8.830;2022-10-16T05:21:03;6.57;;;4.00;;
8247;SDS011;4164;49.844;8.830;2022-10-16T05:23:29;6.17;;;3.63;;
8247;SDS011;4164;49.844;8.830;2022-10-16T05:25:55;7.20;;;3.40;;
8247;SDS011;4164;49.844;8.830;2022-10-16T05:28:23;6.43;;;3.50;;
8247;SDS011;4164;49.844;8.830;2022-10-16T05:30:49;3.60;;;3.07;;
8247;SDS011;4164;49.844;8.830;2022-10-16T05:33:14;3.40;;;3.10;;
8247;SDS011;4164;49.844;8.830;2022-10-16T05:35:40;5.27;;;3.57;;
8247;SDS011;4164;49.844;8.830;2022-10-16T05:38:06;3.83;;;2.93;;
8247;SDS011;4164;49.844;8.830;2022-10-16T05:40:31;4.00;;;3.37;;
8247;SDS011;4164;49.844;8.830;2022-10-16T05:42:57;3.33;;;3.03;;
8247;SDS011;4164;49.844;8.830;2022-10-16T05:45:22;5.13;;;2.77;;
8247;SDS011;4164;49.844;8.830;2022-10-16T05:47:48;5.30;;;2.97;;
8247;SDS011;4164;49.844;8.830;2022-10-16T05:50:13;4.50;;;3.43;;
8247;SDS011;4164;49.844;8.830;2022-10-16T05:52:39;5.00;;;3.03;;
8247;SDS011;4164;49.844;8.830;2022-10-16T05:55:05;8.00;;;3.00;;
8247;SDS011;4164;49.844;8.830;2022-10-16T05:57:30;4.67;;;2.97;;
8247;SDS011;4164;49.844;8.830;2022-10-16T05:59:56;3.30;;;2.77;;
8247;SDS011;4164;49.844;8.830;2022-10-16T06:02:21;7.30;;;2.90;;
8247;SDS011;4164;49.844;8.830;2022-10-16T06:04:47;3.60;;;3.30;;
8247;SDS011;4164;49.844;8.830;2022-10-16T06:07:13;14.53;;;10.63;;
8247;SDS011;4164;49.844;8.830;2022-10-16T06:09:38;16.70;;;10.97;;
8247;SDS011;4164;49.844;8.830;2022-10-16T06:12:04;14.67;;;5.60;;
8247;SDS011;4164;49.844;8.830;2022-10-16T06:14:29;11.40;;;6.37;;
8247;SDS011;4164;49.844;8.830;2022-10-16T06:16:55;4.33;;;3.93;;
8247;SDS011;4164;49.844;8.830;2022-10-16T06:19:20;5.67;;;4.03;;
8247;SDS011;4164;49.844;8.830;2022-10-16T06:21:47;5.57;;;4.07;;
8247;SDS011;4164;49.844;8.830;2022-10-16T06:24:13;6.87;;;3.70;;
8247;SDS011;4164;49.844;8.830;2022-10-16T06:26:38;5.63;;;3.50;;
8247;SDS011;4164;49.844;8.830;2022-10-16T06:29:04;4.77;;;4.10;;
8247;SDS011;4164;49.844;8.830;2022-10-16T06:31:30;6.23;;;4.60;;
8247;SDS011;4164;49.844;8.830;2022-10-16T06:33:58;7.43;;;2.90;;
8247;SDS011;4164;49.844;8.830;2022-10-16T06:36:24;6.10;;;3.00;;
8247;SDS011;4164;49.844;8.830;2022-10-16T06:38:50;3.57;;;2.80;;
8247;SDS011;4164;49.844;8.830;2022-10-16T06:41:16;4.73;;;2.90;;
8247;SDS011;4164;49.844;8.830;2022-10-16T06:43:43;3.27;;;2.70;;
8247;SDS011;4164;49.844;8.830;2022-10-16T06:46:13;2.60;;;2.40;;
8247;SDS011;4164;49.844;8.830;2022-10-16T06:48:40;3.20;;;2.57;;
8247;SDS011;4164;49.844;8.830;2022-10-16T06:51:08;3.40;;;3.10;;
8247;SDS011;4164;49.844;8.830;2022-10-16T06:53:37;3.20;;;2.90;;
8247;SDS011;4164;49.844;8.830;2022-10-16T06:56:07;6.97;;;3.73;;
8247;SDS011;4164;49.844;8.830;2022-10-16T06:58:38;5.83;;;3.33;;
8247;SDS011;4164;49.844;8.830;2022-10-16T07:01:04;6.63;;;3.23;;
8247;SDS011;4164;49.844;8.830;2022-10-16T07:03:30;5.83;;;2.60;;
8247;SDS011;4164;49.844;8.830;2022-10-16T07:05:57;3.60;;;2.40;;
8247;SDS011;4164;49.844;8.830;2022-10-16T07:08:26;2.70;;;2.50;;
8247;SDS011;4164;49.844;8.830;2022-10-16T07:10:57;2.87;;;2.40;;
8247;SDS011;4164;49.844;8.830;2022-10-16T07:13:24;5.07;;;2.37;;
8247;SDS011;4164;49.844;8.830;2022-10-16T07:15:50;3.33;;;2.67;;
8247;SDS011;4164;49.844;8.830;2022-10-16T07:18:15;3.90;;;2.50;;
8247;SDS011;4164;49.844;8.830;2022-10-16T07:20:41;6.20;;;3.00;;
8247;SDS011;4164;49.844;8.830;2022-10-16T07:23:06;4.13;;;2.40;;
8247;SDS011;4164;49.844;8.830;2022-10-16T07:25:32;4.50;;;2.80;;
8247;SDS011;4164;49.844;8.830;2022-10-16T07:27:57;5.30;;;2.77;;
8247;SDS011;4164;49.844;8.830;2022-10-16T07:30:23;2.70;;;2.50;;
8247;SDS011;4164;49.844;8.830;2022-10-16T07:32:48;5.00;;;3.00;;
8247;SDS011;4164;49.844;8.830;2022-10-16T07:35:14;4.33;;;2.27;;
8247;SDS011;4164;49.844;8.830;2022-10-16T07:37:43;6.03;;;2.57;;
8247;SDS011;4164;49.844;8.830;2022-10-16T07:40:10;4.50;;;2.53;;
8247;SDS011;4164;49.844;8.830;2022-10-16T07:42:36;2.90;;;2.57;;
8247;SDS011;4164;49.844;8.830;2022-10-16T07:45:01;3.73;;;2.67;;
8247;SDS011;4164;49.844;8.830;2022-10-16T07:47:27;4.13;;;2.40;;
8247;SDS011;4164;49.844;8.830;2022-10-16T07:49:52;2.47;;;1.90;;
8247;SDS011;4164;49.844;8.830;2022-10-16T07:52:18;5.83;;;2.00;;
8247;SDS011;4164;49.844;8.830;2022-10-16T07:54:44;7.20;;;1.90;;
8247;SDS011;4164;49.844;8.830;2022-10-16T07:57:09;2.13;;;1.80;;
8247;SDS011;4164;49.844;8.830;2022-10-16T07:59:35;8.93;;;1.93;;
8247;SDS011;4164;49.844;8.830;2022-10-16T08:02:00;6.40;;;2.00;;
8247;SDS011;4164;49.844;8.830;2022-10-16T08:04:26;1.73;;;1.63;;
8247;SDS011;4164;49.844;8.830;2022-10-16T08:06:51;4.93;;;2.30;;
8247;SDS011;4164;49.844;8.830;2022-10-16T08:09:19;3.60;;;2.03;;
8247;SDS011;4164;49.844;8.830;2022-10-16T08:11:44;2.67;;;2.17;;
8247;SDS011;4164;49.844;8.830;2022-10-16T08:14:10;6.00;;;2.03;;
8247;SDS011;4164;49.844;8.830;2022-10-16T08:16:36;3.57;;;2.40;;
8247;SDS011;4164;49.844;8.830;2022-10-16T08:19:01;4.47;;;2.30;;
8247;SDS011;4164;49.844;8.830;2022-10-16T08:21:27;3.77;;;1.93;;
8247;SDS011;4164;49.844;8.830;2022-10-16T08:23:53;5.50;;;2.10;;
8247;SDS011;4164;49.844;8.830;2022-10-16T08:26:19;3.47;;;2.00;;
8247;SDS011;4164;49.844;8.830;2022-10-16T08:28:45;2.77;;;1.97;;
8247;SDS011;4164;49.844;8.830;2022-10-16T08:31:14;3.80;;;1.87;;
8247;SDS011;4164;49.844;8.830;2022-10-16T08:33:42;3.07;;;1.90;;
8247;SDS011;4164;49.844;8.830;2022-10-16T08:36:10;2.00;;;1.90;;
8247;SDS011;4164;49.844;8.830;2022-10-16T08:38:36;6.40;;;2.00;;
8247;SDS011;4164;49.844;8.830;2022-10-16T08:41:20;1.70;;;1.60;;
8247;SDS011;4164;49.844;8.830;2022-10-16T08:44:04;2.40;;;1.80;;
8247;SDS011;4164;49.844;8.830;2022-10-16T08:47:01;2.40;;;2.07;;
8247;SDS011;4164;49.844;8.830;2022-10-16T08:49:41;5.03;;;2.23;;
8247;SDS011;4164;49.844;8.830;2022-10-16T08:52:13;11.77;;;2.50;;
8247;SDS011;4164;49.844;8.830;2022-10-16T08:54:42;9.17;;;2.97;;
8247;SDS011;4164;49.844;8.830;2022-10-16T08:57:19;6.37;;;2.60;;
8247;SDS011;4164;49.844;8.830;2022-10-16T08:59:46;3.07;;;2.73;;
8247;SDS011;4164;49.844;8.830;2022-10-16T09:13:23;6.03;;;2.77;;
8247;SDS011;4164;49.844;8.830;2022-10-16T09:21:29;5.17;;;2.30;;
8247;SDS011;4164;49.844;8.830;2022-10-16T09:24:00;4.13;;;2.50;;
8247;SDS011;4164;49.844;8.830;2022-10-16T09:26:41;4.70;;;2.40;;
8247;SDS011;4164;49.844;8.830;2022-10-16T09:29:10;5.13;;;3.40;;
8247;SDS011;4164;49.844;8.830;2022-10-16T09:31:37;5.27;;;4.33;;
8247;SDS011;4164;49.844;8.830;2022-10-16T09:34:03;5.07;;;3.30;;
8247;SDS011;4164;49.844;8.830;2022-10-16T09:36:31;5.23;;;2.90;;
8247;SDS011;4164;49.844;8.830;2022-10-16T09:39:06;8.10;;;3.53;;
8247;SDS011;4164;49.844;8.830;2022-10-16T09:41:34;6.43;;;3.27;;
8247;SDS011;4164;49.844;8.830;2022-10-16T09:44:02;5.73;;;2.93;;
8247;SDS011;4164;49.844;8.830;2022-10-16T09:46:32;6.53;;;2.67;;
8247;SDS011;4164;49.844;8.830;2022-10-16T09:49:04;6.57;;;4.10;;
8247;SDS011;4164;49.844;8.830;2022-10-16T09:51:43;7.97;;;4.73;;
8247;SDS011;4164;49.844;8.830;2022-10-16T09:56:34;4.40;;;3.57;;
8247;SDS011;4164;49.844;8.830;2022-10-16T09:59:10;4.87;;;2.73;;
8247;SDS011;4164;49.844;8.830;2022-10-16T10:01:37;4.57;;;2.10;;
8247;SDS011;4164;49.844;8.830;2022-10-16T10:04:05;5.73;;;4.10;;
8247;SDS011;4164;49.844;8.830;2022-10-16T10:06:36;4.33;;;2.17;;
8247;SDS011;4164;49.844;8.830;2022-10-16T10:09:15;2.30;;;2.07;;
8247;SDS011;4164;49.844;8.830;2022-10-16T10:14:36;2.97;;;1.87;;
8247;SDS011;4164;49.844;8.830;2022-10-16T10:19:36;3.27;;;2.13;;
8247;SDS011;4164;49.844;8.830;2022-10-16T10:27:53;1.43;;;1.30;;
8247;SDS011;4164;49.844;8.830;2022-10-16T10:30:27;1.30;;;1.20;;
8247;SDS011;4164;49.844;8.830;2022-10-16T10:47:30;1.00;;;1.00;;
8247;SDS011;4164;49.844;8.830;2022-10-16T10:58:24;1.20;;;1.10;;
8247;SDS011;4164;49.844;8.830;2022-10-16T11:01:11;2.57;;;1.80;;
8247;SDS011;4164;49.844;8.830;2022-10-16T11:03:58;4.07;;;1.47;;
8247;SDS011;4164;49.844;8.830;2022-10-16T11:06:49;2.27;;;1.60;;
8247;SDS011;4164;49.844;8.830;2022-10-16T11:15:07;1.50;;;1.40;;
8247;SDS011;4164;49.844;8.830;2022-10-16T11:17:40;1.40;;;1.30;;
8247;SDS011;4164;49.844;8.830;2022-10-16T11:20:13;3.70;;;1.27;;
8247;SDS011;4164;49.844;8.830;2022-10-16T11:25:21;2.07;;;1.47;;
8247;SDS011;4164;49.844;8.830;2022-10-16T11:27:54;2.50;;;1.70;;
8247;SDS011;4164;49.844;8.830;2022-10-16T11:33:25;2.80;;;1.43;;
8247;SDS011;4164;49.844;8.830;2022-10-16T11:41:24;2.57;;;1.57;;
8247;SDS011;4164;49.844;8.830;2022-10-16T11:44:00;2.10;;;1.43;;
8247;SDS011;4164;49.844;8.830;2022-10-16T11:46:29;3.50;;;1.67;;
8247;SDS011;4164;49.844;8.830;2022-10-16T11:49:09;4.07;;;1.77;;
8247;SDS011;4164;49.844;8.830;2022-10-16T11:51:51;4.90;;;2.20;;
8247;SDS011;4164;49.844;8.830;2022-10-16T11:54:39;2.87;;;2.00;;
8247;SDS011;4164;49.844;8.830;2022-10-16T11:57:16;2.47;;;1.73;;
8247;SDS011;4164;49.844;8.830;2022-10-16T11:59:51;3.27;;;1.90;;
8247;SDS011;4164;49.844;8.830;2022-10-16T12:05:38;2.77;;;1.70;;
8247;SDS011;4164;49.844;8.830;2022-10-16T12:07:41;1.87;;;1.70;;
8247;SDS011;4164;49.844;8.830;2022-10-16T12:10:24;1.53;;;1.43;;
8247;SDS011;4164;49.844;8.830;2022-10-16T12:12:53;1.73;;;1.60;;
8247;SDS011;4164;49.844;8.830;2022-10-16T12:15:24;1.60;;;1.50;;
8247;SDS011;4164;49.844;8.830;2022-10-16T12:17:51;3.30;;;1.83;;
8247;SDS011;4164;49.844;8.830;2022-10-16T12:20:22;2.23;;;2.00;;
8247;SDS011;4164;49.844;8.830;2022-10-16T12:25:23;2.23;;;1.50;;
8247;SDS011;4164;49.844;8.830;2022-10-16T12:27:56;3.00;;;1.43;;
8247;SDS011;4164;49.844;8.830;2022-10-16T12:30:26;2.43;;;1.60;;
8247;SDS011;4164;49.844;8.830;2022-10-16T12:32:55;1.30;;;1.20;;
8247;SDS011;4164;49.844;8.830;2022-10-16T12:35:26;2.10;;;1.77;;
8247;SDS011;4164;49.844;8.830;2022-10-16T12:38:03;2.60;;;1.57;;
8247;SDS011;4164;49.844;8.830;2022-10-16T12:40:32;3.10;;;1.77;;
8247;SDS011;4164;49.844;8.830;2022-10-16T12:43:10;2.67;;;2.07;;
8247;SDS011;4164;49.844;8.830;2022-10-16T12:45:37;4.13;;;1.60;;
8247;SDS011;4164;49.844;8.830;2022-10-16T12:48:04;3.20;;;1.50;;
8247;SDS011;4164;49.844;8.830;2022-10-16T12:50:44;1.67;;;1.57;;
8247;SDS011;4164;49.844;8.830;2022-10-16T12:53:18;2.77;;;2.10;;
8247;SDS011;4164;49.844;8.830;2022-10-16T12:56:10;2.43;;;1.83;;
8247;SDS011;4164;49.844;8.830;2022-10-16T13:01:34;6.33;;;1.80;;
8247;SDS011;4164;49.844;8.830;2022-10-16T13:07:15;3.13;;;2.20;;
8247;SDS011;4164;49.844;8.830;2022-10-16T13:10:04;1.70;;;1.57;;
8247;SDS011;4164;49.844;8.830;2022-10-16T13:23:18;2.27;;;1.70;;
8247;SDS011;4164;49.844;8.830;2022-10-16T13:28:59;3.27;;;1.80;;
8247;SDS011;4164;49.844;8.830;2022-10-16T13:31:26;3.03;;;1.90;;
8247;SDS011;4164;49.844;8.830;2022-10-16T13:33:54;7.07;;;2.20;;
8247;SDS011;4164;49.844;8.830;2022-10-16T13:36:25;3.67;;;1.80;;
8247;SDS011;4164;49.844;8.830;2022-10-16T13:39:11;6.50;;;2.00;;
8247;SDS011;4164;49.844;8.830;2022-10-16T13:41:39;3.00;;;2.30;;
8247;SDS011;4164;49.844;8.830;2022-10-16T13:44:05;4.80;;;1.90;;
8247;SDS011;4164;49.844;8.830;2022-10-16T13:46:39;5.60;;;2.20;;
8247;SDS011;4164;49.844;8.830;2022-10-16T13:49:05;2.20;;;2.00;;
8247;SDS011;4164;49.844;8.830;2022-10-16T13:51:41;5.23;;;2.23;;
8247;SDS011;4164;49.844;8.830;2022-10-16T13:54:19;4.60;;;2.23;;
8247;SDS011;4164;49.844;8.830;2022-10-16T13:56:45;2.60;;;2.03;;
8247;SDS011;4164;49.844;8.830;2022-10-16T13:59:24;2.67;;;1.83;;
8247;SDS011;4164;49.844;8.830;2022-10-16T14:01:52;4.93;;;1.90;;
8247;SDS011;4164;49.844;8.830;2022-10-16T14:04:21;2.43;;;1.90;;
8247;SDS011;4164;49.844;8.830;2022-10-16T14:06:49;5.70;;;2.60;;
8247;SDS011;4164;49.844;8.830;2022-10-16T14:11:46;3.53;;;2.20;;
8247;SDS011;4164;49.844;8.830;2022-10-16T14:14:16;9.97;;;2.73;;
8247;SDS011;4164;49.844;8.830;2022-10-16T14:16:43;2.87;;;2.30;;
8247;SDS011;4164;49.844;8.830;2022-10-16T14:21:47;5.23;;;2.37;;
8247;SDS011;4164;49.844;8.830;2022-10-16T14:26:55;4.70;;;3.33;;
8247;SDS011;4164;49.844;8.830;2022-10-16T14:29:21;27.73;;;9.97;;
8247;SDS011;4164;49.844;8.830;2022-10-16T14:31:58;18.90;;;7.93;;
8247;SDS011;4164;49.844;8.830;2022-10-16T14:34:35;11.87;;;4.10;;
8247;SDS011;4164;49.844;8.830;2022-10-16T14:37:09;4.30;;;3.10;;
8247;SDS011;4164;49.844;8.830;2022-10-16T14:39:42;3.93;;;3.37;;
8247;SDS011;4164;49.844;8.830;2022-10-16T14:42:14;5.07;;;3.00;;
8247;SDS011;4164;49.844;8.830;2022-10-16T14:44:42;4.33;;;2.40;;
8247;SDS011;4164;49.844;8.830;2022-10-16T14:47:09;3.70;;;2.47;;
8247;SDS011;4164;49.844;8.830;2022-10-16T14:49:42;8.60;;;2.70;;
8247;SDS011;4164;49.844;8.830;2022-10-16T14:52:11;6.30;;;2.93;;
8247;SDS011;4164;49.844;8.830;2022-10-16T14:54:37;4.07;;;2.60;;
8247;SDS011;4164;49.844;8.830;2022-10-16T14:57:04;2.20;;;2.00;;
8247;SDS011;4164;49.844;8.830;2022-10-16T15:02:29;8.20;;;2.77;;
8247;SDS011;4164;49.844;8.830;2022-10-16T15:05:13;5.83;;;2.53;;
8247;SDS011;4164;49.844;8.830;2022-10-16T15:07:41;3.73;;;2.40;;
8247;SDS011;4164;49.844;8.830;2022-10-16T15:10:07;2.33;;;2.13;;
8247;SDS011;4164;49.844;8.830;2022-10-16T15:12:32;4.03;;;2.20;;
8247;SDS011;4164;49.844;8.830;2022-10-16T15:14:58;3.67;;;1.93;;
8247;SDS011;4164;49.844;8.830;2022-10-16T15:17:24;6.13;;;2.33;;
8247;SDS011;4164;49.844;8.830;2022-10-16T15:19:50;5.00;;;2.23;;
8247;SDS011;4164;49.844;8.830;2022-10-16T15:22:16;3.93;;;2.40;;
8247;SDS011;4164;49.844;8.830;2022-10-16T15:24:42;4.63;;;2.37;;
8247;SDS011;4164;49.844;8.830;2022-10-16T15:27:08;5.57;;;3.33;;
8247;SDS011;4164;49.844;8.830;2022-10-16T15:29:33;4.90;;;3.20;;
8247;SDS011;4164;49.844;8.830;2022-10-16T15:31:59;5.13;;;2.80;;
8247;SDS011;4164;49.844;8.830;2022-10-16T15:34:24;3.37;;;2.57;;
8247;SDS011;4164;49.844;8.830;2022-10-16T15:36:50;3.50;;;2.40;;
8247;SDS011;4164;49.844;8.830;2022-10-16T15:39:17;3.03;;;2.60;;
8247;SDS011;4164;49.844;8.830;2022-10-16T15:41:45;3.87;;;2.33;;
8247;SDS011;4164;49.844;8.830;2022-10-16T15:44:16;3.30;;;2.30;;
8247;SDS011;4164;49.844;8.830;2022-10-16T15:46:42;3.57;;;2.33;;
8247;SDS011;4164;49.844;8.830;2022-10-16T15:49:07;3.37;;;2.40;;
8247;SDS011;4164;49.844;8.830;2022-10-16T15:51:35;3.13;;;2.30;;
8247;SDS011;4164;49.844;8.830;2022-10-16T15:54:03;5.10;;;2.23;;
8247;SDS011;4164;49.844;8.830;2022-10-16T15:56:29;4.83;;;2.50;;
8247;SDS011;4164;49.844;8.830;2022-10-16T15:58:57;4.00;;;2.30;;
8247;SDS011;4164;49.844;8.830;2022-10-16T16:01:23;3.67;;;2.40;;
8247;SDS011;4164;49.844;8.830;2022-10-16T16:03:52;3.20;;;2.20;;
8247;SDS011;4164;49.844;8.830;2022-10-16T16:06:18;7.07;;;2.60;;
8247;SDS011;4164;49.844;8.830;2022-10-16T16:08:44;5.27;;;2.67;;
8247;SDS011;4164;49.844;8.830;2022-10-16T16:11:10;5.50;;;2.50;;
8247;SDS011;4164;49.844;8.830;2022-10-16T16:13:37;3.43;;;2.57;;
8247;SDS011;4164;49.844;8.830;2022-10-16T16:16:07;3.47;;;2.77;;
8247;SDS011;4164;49.844;8.830;2022-10-16T16:18:34;5.43;;;2.70;;
8247;SDS011;4164;49.844;8.830;2022-10-16T16:21:01;3.97;;;2.60;;
8247;SDS011;4164;49.844;8.830;2022-10-16T16:23:26;5.87;;;3.23;;
8247;SDS011;4164;49.844;8.830;2022-10-16T16:26:09;4.13;;;3.33;;
8247;SDS011;4164;49.844;8.830;2022-10-16T16:28:52;6.50;;;3.40;;
8247;SDS011;4164;49.844;8.830;2022-10-16T16:31:19;8.23;;;5.83;;
8247;SDS011;4164;49.844;8.830;2022-10-16T16:33:48;20.73;;;12.87;;
8247;SDS011;4164;49.844;8.830;2022-10-16T16:36:13;39.13;;;23.90;;
8247;SDS011;4164;49.844;8.830;2022-10-16T16:38:39;40.47;;;22.70;;
8247;SDS011;4164;49.844;8.830;2022-10-16T16:41:15;30.43;;;18.30;;
8247;SDS011;4164;49.844;8.830;2022-10-16T16:43:45;65.60;;;35.70;;
8247;SDS011;4164;49.844;8.830;2022-10-16T16:46:12;45.90;;;28.73;;
8247;SDS011;4164;49.844;8.830;2022-10-16T16:48:39;59.53;;;34.33;;
8247;SDS011;4164;49.844;8.830;2022-10-16T16:51:09;58.50;;;35.90;;
8247;SDS011;4164;49.844;8.830;2022-10-16T16:53:40;57.77;;;37.23;;
8247;SDS011;4164;49.844;8.830;2022-10-16T16:56:09;47.73;;;28.90;;
8247;SDS011;4164;49.844;8.830;2022-10-16T16:58:35;32.93;;;19.87;;
8247;SDS011;4164;49.844;8.830;2022-10-16T17:01:01;18.37;;;12.87;;
8247;SDS011;4164;49.844;8.830;2022-10-16T17:03:31;20.20;;;13.07;;
8247;SDS011;4164;49.844;8.830;2022-10-16T17:06:07;13.77;;;10.60;;
8247;SDS011;4164;49.844;8.830;2022-10-16T17:08:34;28.30;;;25.60;;
8247;SDS011;4164;49.844;8.830;2022-10-16T17:11:00;37.07;;;32.83;;
8247;SDS011;4164;49.844;8.830;2022-10-16T17:13:29;28.30;;;24.57;;
8247;SDS011;4164;49.844;8.830;2022-10-16T17:15:59;23.67;;;17.90;;
8247;SDS011;4164;49.844;8.830;2022-10-16T17:18:25;24.67;;;16.60;;
8247;SDS011;4164;49.844;8.830;2022-10-16T17:20:51;17.47;;;14.13;;
8247;SDS011;4164;49.844;8.830;2022-10-16T17:23:17;13.20;;;9.43;;
8247;SDS011;4164;49.844;8.830;2022-10-16T17:25:44;15.07;;;6.67;;
8247;SDS011;4164;49.844;8.830;2022-10-16T17:28:11;6.47;;;5.17;;
8247;SDS011;4164;49.844;8.830;2022-10-16T17:30:39;4.50;;;3.50;;
8247;SDS011;4164;49.844;8.830;2022-10-16T17:33:05;5.47;;;3.00;;
8247;SDS011;4164;49.844;8.830;2022-10-16T17:35:38;3.77;;;2.80;;
8247;SDS011;4164;49.844;8.830;2022-10-16T17:38:09;4.67;;;3.67;;
8247;SDS011;4164;49.844;8.830;2022-10-16T17:40:36;5.37;;;3.77;;